sensor_id;sensor_type;location;lat;lon;timestamp;temperature;humidity
70154;DHT22;57519;51.494;-2.626;2023-07-22T00:01:48;15.68;82.22
70154;DHT22;57519;51.494;-2.626;2023-07-22T00:04:14;15.67;82.50
70154;DHT22;57519;51.494;-2.626;2023-07-22T00:06:39;15.64;82.25
70154;DHT22;57519;51.494;-2.626;2023-07-22T00:09:05;15.67;82.25
70154;DHT22;57519;51.494;-2.626;2023-07-22T00:11:31;15.73;82.34
70154;DHT22;57519;51.494;-2.626;2023-07-22T00:13:57;15.71;82.41
70154;DHT22;57519;51.494;-2.626;2023-07-22T00:16:22;15.68;82.41
70154;DHT22;57519;51.494;-2.626;2023-07-22T00:18:48;15.66;82.70
70154;DHT22;57519;51.494;-2.626;2023-07-22T00:21:14;15.66;82.47
70154;DHT22;57519;51.494;-2.626;2023-07-22T00:23:40;15.68;82.39
70154;DHT22;57519;51.494;-2.626;2023-07-22T00:26:05;15.64;82.78
70154;DHT22;57519;51.494;-2.626;2023-07-22T00:28:30;15.63;82.85
70154;DHT22;57519;51.494;-2.626;2023-07-22T00:30:56;15.66;82.77
70154;DHT22;57519;51.494;-2.626;2023-07-22T00:33:22;15.60;82.85
70154;DHT22;57519;51.494;-2.626;2023-07-22T00:35:49;15.58;83.16
70154;DHT22;57519;51.494;-2.626;2023-07-22T00:38:18;15.58;83.31
70154;DHT22;57519;51.494;-2.626;2023-07-22T00:40:44;15.58;83.40
70154;DHT22;57519;51.494;-2.626;2023-07-22T00:43:10;15.58;83.38
70154;DHT22;57519;51.494;-2.626;2023-07-22T00:45:36;15.57;83.75
70154;DHT22;57519;51.494;-2.626;2023-07-22T00:48:02;15.57;84.00
70154;DHT22;57519;51.494;-2.626;2023-07-22T00:50:30;15.56;84.12
70154;DHT22;57519;51.494;-2.626;2023-07-22T00:52:56;15.56;84.28
70154;DHT22;57519;51.494;-2.626;2023-07-22T00:55:21;15.54;84.35
70154;DHT22;57519;51.494;-2.626;2023-07-22T00:57:47;15.57;84.54
70154;DHT22;57519;51.494;-2.626;2023-07-22T01:00:13;15.56;84.64
70154;DHT22;57519;51.494;-2.626;2023-07-22T01:02:41;15.51;84.65
70154;DHT22;57519;51.494;-2.626;2023-07-22T01:05:06;15.53;84.86
70154;DHT22;57519;51.494;-2.626;2023-07-22T01:07:32;15.49;84.70
70154;DHT22;57519;51.494;-2.626;2023-07-22T01:09:58;15.49;84.58
70154;DHT22;57519;51.494;-2.626;2023-07-22T01:12:24;15.40;84.64
70154;DHT22;57519;51.494;-2.626;2023-07-22T01:14:50;15.40;84.86
70154;DHT22;57519;51.494;-2.626;2023-07-22T01:17:15;15.35;84.96
70154;DHT22;57519;51.494;-2.626;2023-07-22T01:19:41;15.30;84.65
70154;DHT22;57519;51.494;-2.626;2023-07-22T01:22:07;15.30;84.67
70154;DHT22;57519;51.494;-2.626;2023-07-22T01:24:36;15.33;84.72
70154;DHT22;57519;51.494;-2.626;2023-07-22T01:27:03;15.30;84.60
70154;DHT22;57519;51.494;-2.626;2023-07-22T01:29:29;15.23;84.70
70154;DHT22;57519;51.494;-2.626;2023-07-22T01:31:55;15.25;84.59
70154;DHT22;57519;51.494;-2.626;2023-07-22T01:34:21;15.19;84.35
70154;DHT22;57519;51.494;-2.626;2023-07-22T01:36:48;15.19;84.47
70154;DHT22;57519;51.494;-2.626;2023-07-22T01:39:15;15.15;84.55
70154;DHT22;57519;51.494;-2.626;2023-07-22T01:41:40;15.12;84.54
70154;DHT22;57519;51.494;-2.626;2023-07-22T01:44:06;15.09;84.55
70154;DHT22;57519;51.494;-2.626;2023-07-22T01:46:31;15.12;84.44
70154;DHT22;57519;51.494;-2.626;2023-07-22T01:48:57;15.10;84.60
70154;DHT22;57519;51.494;-2.626;2023-07-22T01:51:22;15.08;84.76
70154;DHT22;57519;51.494;-2.626;2023-07-22T01:53:48;15.03;85.00
70154;DHT22;57519;51.494;-2.626;2023-07-22T01:56:14;15.03;84.95
70154;DHT22;57519;51.494;-2.626;2023-07-22T01:58:41;15.03;84.88
70154;DHT22;57519;51.494;-2.626;2023-07-22T02:01:07;15.03;84.81
70154;DHT22;57519;51.494;-2.626;2023-07-22T02:03:33;15.08;84.76
70154;DHT22;57519;51.494;-2.626;2023-07-22T02:06:05;15.09;84.70
70154;DHT22;57519;51.494;-2.626;2023-07-22T02:08:31;15.10;84.84
70154;DHT22;57519;51.494;-2.626;2023-07-22T02:11:03;15.13;84.79
70154;DHT22;57519;51.494;-2.626;2023-07-22T02:13:30;15.10;84.74
70154;DHT22;57519;51.494;-2.626;2023-07-22T02:15:55;15.12;84.73
70154;DHT22;57519;51.494;-2.626;2023-07-22T02:18:21;15.13;84.68
70154;DHT22;57519;51.494;-2.626;2023-07-22T02:20:46;15.18;84.31
70154;DHT22;57519;51.494;-2.626;2023-07-22T02:23:12;15.15;84.38
70154;DHT22;57519;51.494;-2.626;2023-07-22T02:25:37;15.13;84.46
70154;DHT22;57519;51.494;-2.626;2023-07-22T02:28:03;15.13;84.45
70154;DHT22;57519;51.494;-2.626;2023-07-22T02:30:29;15.10;84.36
70154;DHT22;57519;51.494;-2.626;2023-07-22T02:32:54;15.19;84.11
70154;DHT22;57519;51.494;-2.626;2023-07-22T02:35:19;15.19;84.14
70154;DHT22;57519;51.494;-2.626;2023-07-22T02:37:45;15.15;84.27
70154;DHT22;57519;51.494;-2.626;2023-07-22T02:40:10;15.10;83.91
70154;DHT22;57519;51.494;-2.626;2023-07-22T02:42:36;15.09;83.98
70154;DHT22;57519;51.494;-2.626;2023-07-22T02:45:03;15.10;83.95
70154;DHT22;57519;51.494;-2.626;2023-07-22T02:47:31;15.09;83.78
70154;DHT22;57519;51.494;-2.626;2023-07-22T02:49:57;15.09;83.70
70154;DHT22;57519;51.494;-2.626;2023-07-22T02:52:22;15.05;83.69
70154;DHT22;57519;51.494;-2.626;2023-07-22T02:55:10;15.03;83.91
70154;DHT22;57519;51.494;-2.626;2023-07-22T02:57:37;14.95;83.78
70154;DHT22;57519;51.494;-2.626;2023-07-22T03:00:03;14.95;83.93
70154;DHT22;57519;51.494;-2.626;2023-07-22T03:02:41;14.92;83.88
70154;DHT22;57519;51.494;-2.626;2023-07-22T03:05:07;14.89;84.00
70154;DHT22;57519;51.494;-2.626;2023-07-22T03:07:37;14.85;84.09
70154;DHT22;57519;51.494;-2.626;2023-07-22T03:10:04;14.84;84.05
70154;DHT22;57519;51.494;-2.626;2023-07-22T03:12:29;14.81;84.25
70154;DHT22;57519;51.494;-2.626;2023-07-22T03:14:55;14.78;84.04
70154;DHT22;57519;51.494;-2.626;2023-07-22T03:17:21;14.75;84.08
70154;DHT22;57519;51.494;-2.626;2023-07-22T03:19:46;14.75;84.07
70154;DHT22;57519;51.494;-2.626;2023-07-22T03:22:15;14.72;84.08
70154;DHT22;57519;51.494;-2.626;2023-07-22T03:24:47;14.68;84.09
70154;DHT22;57519;51.494;-2.626;2023-07-22T03:27:13;14.64;84.10
70154;DHT22;57519;51.494;-2.626;2023-07-22T03:29:40;14.64;84.10
70154;DHT22;57519;51.494;-2.626;2023-07-22T03:32:06;14.64;84.24
70154;DHT22;57519;51.494;-2.626;2023-07-22T03:34:31;14.61;84.15
70154;DHT22;57519;51.494;-2.626;2023-07-22T03:36:57;14.60;84.16
70154;DHT22;57519;51.494;-2.626;2023-07-22T03:39:23;14.59;84.20
70154;DHT22;57519;51.494;-2.626;2023-07-22T03:41:49;14.51;84.41
70154;DHT22;57519;51.494;-2.626;2023-07-22T03:44:14;14.47;84.42
70154;DHT22;57519;51.494;-2.626;2023-07-22T03:46:40;14.44;84.79
70154;DHT22;57519;51.494;-2.626;2023-07-22T03:49:05;14.44;84.73
70154;DHT22;57519;51.494;-2.626;2023-07-22T03:51:31;14.45;84.79
70154;DHT22;57519;51.494;-2.626;2023-07-22T03:53:57;14.45;84.74
70154;DHT22;57519;51.494;-2.626;2023-07-22T03:56:22;14.47;84.59
70154;DHT22;57519;51.494;-2.626;2023-07-22T03:58:49;14.47;84.63
70154;DHT22;57519;51.494;-2.626;2023-07-22T04:01:15;14.48;85.04
70154;DHT22;57519;51.494;-2.626;2023-07-22T04:03:40;14.47;85.23
70154;DHT22;57519;51.494;-2.626;2023-07-22T04:06:06;14.44;85.66
70154;DHT22;57519;51.494;-2.626;2023-07-22T04:08:31;14.45;86.10
70154;DHT22;57519;51.494;-2.626;2023-07-22T04:10:57;14.43;86.35
70154;DHT22;57519;51.494;-2.626;2023-07-22T04:13:24;14.41;86.93
70154;DHT22;57519;51.494;-2.626;2023-07-22T04:15:50;14.40;87.16
70154;DHT22;57519;51.494;-2.626;2023-07-22T04:18:17;14.33;87.49
70154;DHT22;57519;51.494;-2.626;2023-07-22T04:20:43;14.33;87.89
70154;DHT22;57519;51.494;-2.626;2023-07-22T04:23:08;14.27;88.40
70154;DHT22;57519;51.494;-2.626;2023-07-22T04:25:42;14.26;88.65
70154;DHT22;57519;51.494;-2.626;2023-07-22T04:28:08;14.22;88.95
70154;DHT22;57519;51.494;-2.626;2023-07-22T04:30:35;14.16;88.85
70154;DHT22;57519;51.494;-2.626;2023-07-22T04:33:00;14.16;89.08
70154;DHT22;57519;51.494;-2.626;2023-07-22T04:35:26;14.12;88.83
70154;DHT22;57519;51.494;-2.626;2023-07-22T04:37:51;14.14;89.12
70154;DHT22;57519;51.494;-2.626;2023-07-22T04:40:16;14.12;89.55
70154;DHT22;57519;51.494;-2.626;2023-07-22T04:42:44;14.10;89.74
70154;DHT22;57519;51.494;-2.626;2023-07-22T04:45:10;14.08;89.89
70154;DHT22;57519;51.494;-2.626;2023-07-22T04:47:39;14.01;89.91
70154;DHT22;57519;51.494;-2.626;2023-07-22T04:50:05;14.10;90.12
70154;DHT22;57519;51.494;-2.626;2023-07-22T04:52:35;14.10;90.17
70154;DHT22;57519;51.494;-2.626;2023-07-22T04:55:00;14.10;89.88
70154;DHT22;57519;51.494;-2.626;2023-07-22T04:57:25;14.10;89.71
70154;DHT22;57519;51.494;-2.626;2023-07-22T04:59:51;14.13;90.14
70154;DHT22;57519;51.494;-2.626;2023-07-22T05:02:16;14.17;90.08
70154;DHT22;57519;51.494;-2.626;2023-07-22T05:04:42;14.20;89.67
70154;DHT22;57519;51.494;-2.626;2023-07-22T05:07:07;14.22;89.70
70154;DHT22;57519;51.494;-2.626;2023-07-22T05:09:32;14.22;89.61
70154;DHT22;57519;51.494;-2.626;2023-07-22T05:11:58;14.22;89.25
70154;DHT22;57519;51.494;-2.626;2023-07-22T05:14:24;14.26;89.74
70154;DHT22;57519;51.494;-2.626;2023-07-22T05:16:49;14.29;89.36
70154;DHT22;57519;51.494;-2.626;2023-07-22T05:19:14;14.34;88.86
70154;DHT22;57519;51.494;-2.626;2023-07-22T05:21:40;14.37;88.85
70154;DHT22;57519;51.494;-2.626;2023-07-22T05:24:06;14.41;88.83
70154;DHT22;57519;51.494;-2.626;2023-07-22T05:26:32;14.43;89.02
70154;DHT22;57519;51.494;-2.626;2023-07-22T05:28:57;14.47;88.91
70154;DHT22;57519;51.494;-2.626;2023-07-22T05:31:23;14.47;88.59
70154;DHT22;57519;51.494;-2.626;2023-07-22T05:33:48;14.43;88.63
70154;DHT22;57519;51.494;-2.626;2023-07-22T05:36:14;14.51;88.44
70154;DHT22;57519;51.494;-2.626;2023-07-22T05:38:39;14.56;88.52
70154;DHT22;57519;51.494;-2.626;2023-07-22T05:41:04;14.57;88.49
70154;DHT22;57519;51.494;-2.626;2023-07-22T05:43:30;14.63;88.24
70154;DHT22;57519;51.494;-2.626;2023-07-22T05:45:55;14.64;88.28
70154;DHT22;57519;51.494;-2.626;2023-07-22T05:48:21;14.63;88.22
70154;DHT22;57519;51.494;-2.626;2023-07-22T05:50:46;14.70;87.60
70154;DHT22;57519;51.494;-2.626;2023-07-22T05:53:13;14.68;87.28
70154;DHT22;57519;51.494;-2.626;2023-07-22T05:55:38;14.78;86.92
70154;DHT22;57519;51.494;-2.626;2023-07-22T05:58:04;14.84;86.70
70154;DHT22;57519;51.494;-2.626;2023-07-22T06:00:33;14.85;86.76
70154;DHT22;57519;51.494;-2.626;2023-07-22T06:02:59;14.89;86.70
70154;DHT22;57519;51.494;-2.626;2023-07-22T06:05:25;14.93;87.11
70154;DHT22;57519;51.494;-2.626;2023-07-22T06:07:50;15.02;86.49
70154;DHT22;57519;51.494;-2.626;2023-07-22T06:10:15;15.05;85.67
70154;DHT22;57519;51.494;-2.626;2023-07-22T06:12:41;15.20;85.74
70154;DHT22;57519;51.494;-2.626;2023-07-22T06:15:07;15.27;85.08
70154;DHT22;57519;51.494;-2.626;2023-07-22T06:17:32;15.30;85.12
70154;DHT22;57519;51.494;-2.626;2023-07-22T06:19:58;15.36;85.02
70154;DHT22;57519;51.494;-2.626;2023-07-22T06:22:23;15.44;84.24
70154;DHT22;57519;51.494;-2.626;2023-07-22T06:24:49;15.44;84.34
70154;DHT22;57519;51.494;-2.626;2023-07-22T06:27:14;15.36;84.61
70154;DHT22;57519;51.494;-2.626;2023-07-22T06:29:40;15.42;83.98
70154;DHT22;57519;51.494;-2.626;2023-07-22T06:32:06;15.47;84.24
70154;DHT22;57519;51.494;-2.626;2023-07-22T06:34:31;15.56;83.88
70154;DHT22;57519;51.494;-2.626;2023-07-22T06:36:57;15.58;83.35
70154;DHT22;57519;51.494;-2.626;2023-07-22T06:39:22;15.60;82.95
70154;DHT22;57519;51.494;-2.626;2023-07-22T06:41:47;15.63;82.81
70154;DHT22;57519;51.494;-2.626;2023-07-22T06:44:13;15.77;82.48
70154;DHT22;57519;51.494;-2.626;2023-07-22T06:46:38;15.88;82.20
70154;DHT22;57519;51.494;-2.626;2023-07-22T06:49:04;15.97;82.08
70154;DHT22;57519;51.494;-2.626;2023-07-22T06:51:29;15.87;81.36
70154;DHT22;57519;51.494;-2.626;2023-07-22T06:53:54;15.80;81.71
70154;DHT22;57519;51.494;-2.626;2023-07-22T06:56:20;15.78;82.13
70154;DHT22;57519;51.494;-2.626;2023-07-22T06:58:45;15.67;82.16
70154;DHT22;57519;51.494;-2.626;2023-07-22T07:01:12;15.56;81.99
70154;DHT22;57519;51.494;-2.626;2023-07-22T07:03:37;15.56;82.36
70154;DHT22;57519;51.494;-2.626;2023-07-22T07:06:03;15.61;82.71
70154;DHT22;57519;51.494;-2.626;2023-07-22T07:08:28;15.66;82.45
70154;DHT22;57519;51.494;-2.626;2023-07-22T07:10:54;15.67;81.99
70154;DHT22;57519;51.494;-2.626;2023-07-22T07:13:19;15.75;81.46
70154;DHT22;57519;51.494;-2.626;2023-07-22T07:15:47;15.78;80.92
70154;DHT22;57519;51.494;-2.626;2023-07-22T07:18:14;15.91;80.97
70154;DHT22;57519;51.494;-2.626;2023-07-22T07:20:39;16.02;80.67
70154;DHT22;57519;51.494;-2.626;2023-07-22T07:23:04;16.08;80.66
70154;DHT22;57519;51.494;-2.626;2023-07-22T07:25:30;16.06;80.00
70154;DHT22;57519;51.494;-2.626;2023-07-22T07:27:55;16.14;80.06
70154;DHT22;57519;51.494;-2.626;2023-07-22T07:30:21;16.15;80.07
70154;DHT22;57519;51.494;-2.626;2023-07-22T07:32:46;16.16;80.32
70154;DHT22;57519;51.494;-2.626;2023-07-22T07:35:11;16.26;79.13
70154;DHT22;57519;51.494;-2.626;2023-07-22T07:37:37;16.32;79.77
70154;DHT22;57519;51.494;-2.626;2023-07-22T07:40:03;16.32;79.44
70154;DHT22;57519;51.494;-2.626;2023-07-22T07:42:29;16.23;79.63
70154;DHT22;57519;51.494;-2.626;2023-07-22T07:44:54;16.28;79.60
70154;DHT22;57519;51.494;-2.626;2023-07-22T07:47:20;16.23;79.79
70154;DHT22;57519;51.494;-2.626;2023-07-22T07:49:45;16.25;80.29
70154;DHT22;57519;51.494;-2.626;2023-07-22T07:52:11;16.22;80.81
70154;DHT22;57519;51.494;-2.626;2023-07-22T07:54:36;16.15;80.30
70154;DHT22;57519;51.494;-2.626;2023-07-22T07:57:02;16.19;80.68
70154;DHT22;57519;51.494;-2.626;2023-07-22T07:59:27;16.15;81.19
70154;DHT22;57519;51.494;-2.626;2023-07-22T08:01:52;16.04;81.50
70154;DHT22;57519;51.494;-2.626;2023-07-22T08:04:18;15.98;81.34
70154;DHT22;57519;51.494;-2.626;2023-07-22T08:06:43;15.95;82.58
70154;DHT22;57519;51.494;-2.626;2023-07-22T08:09:10;15.87;82.89
70154;DHT22;57519;51.494;-2.626;2023-07-22T08:11:37;15.83;83.37
70154;DHT22;57519;51.494;-2.626;2023-07-22T08:14:03;15.71;83.97
70154;DHT22;57519;51.494;-2.626;2023-07-22T08:16:28;15.60;84.35
70154;DHT22;57519;51.494;-2.626;2023-07-22T08:18:54;15.60;85.17
70154;DHT22;57519;51.494;-2.626;2023-07-22T08:21:19;15.51;85.99
70154;DHT22;57519;51.494;-2.626;2023-07-22T08:23:45;15.44;86.62
70154;DHT22;57519;51.494;-2.626;2023-07-22T08:26:12;15.46;87.30
70154;DHT22;57519;51.494;-2.626;2023-07-22T08:28:38;15.37;87.55
70154;DHT22;57519;51.494;-2.626;2023-07-22T08:31:03;15.32;87.94
70154;DHT22;57519;51.494;-2.626;2023-07-22T08:33:29;15.36;88.52
70154;DHT22;57519;51.494;-2.626;2023-07-22T08:35:55;15.37;88.95
70154;DHT22;57519;51.494;-2.626;2023-07-22T08:38:20;15.33;88.79
70154;DHT22;57519;51.494;-2.626;2023-07-22T08:40:49;15.33;89.65
70154;DHT22;57519;51.494;-2.626;2023-07-22T08:43:15;15.30;89.84
70154;DHT22;57519;51.494;-2.626;2023-07-22T08:45:42;15.33;89.95
70154;DHT22;57519;51.494;-2.626;2023-07-22T08:48:12;15.39;89.90
70154;DHT22;57519;51.494;-2.626;2023-07-22T08:50:52;15.43;90.30
70154;DHT22;57519;51.494;-2.626;2023-07-22T08:53:18;15.42;90.09
70154;DHT22;57519;51.494;-2.626;2023-07-22T08:55:45;15.35;90.17
70154;DHT22;57519;51.494;-2.626;2023-07-22T08:58:11;15.33;90.29
70154;DHT22;57519;51.494;-2.626;2023-07-22T09:00:40;15.39;90.51
70154;DHT22;57519;51.494;-2.626;2023-07-22T09:03:06;15.46;90.91
70154;DHT22;57519;51.494;-2.626;2023-07-22T09:05:32;15.33;90.22
70154;DHT22;57519;51.494;-2.626;2023-07-22T09:07:59;15.32;90.42
70154;DHT22;57519;51.494;-2.626;2023-07-22T09:10:27;15.36;91.02
70154;DHT22;57519;51.494;-2.626;2023-07-22T09:12:53;15.33;90.68
70154;DHT22;57519;51.494;-2.626;2023-07-22T09:15:19;15.32;91.01
70154;DHT22;57519;51.494;-2.626;2023-07-22T09:21:10;15.35;91.53
70154;DHT22;57519;51.494;-2.626;2023-07-22T09:26:58;15.33;91.28
70154;DHT22;57519;51.494;-2.626;2023-07-22T09:29:34;15.37;91.21
70154;DHT22;57519;51.494;-2.626;2023-07-22T09:35:44;15.37;90.98
70154;DHT22;57519;51.494;-2.626;2023-07-22T09:38:10;15.42;91.21
70154;DHT22;57519;51.494;-2.626;2023-07-22T09:44:02;15.39;90.99
70154;DHT22;57519;51.494;-2.626;2023-07-22T09:49:50;15.36;91.28
70154;DHT22;57519;51.494;-2.626;2023-07-22T09:55:37;15.36;91.63
70154;DHT22;57519;51.494;-2.626;2023-07-22T10:01:33;15.43;91.47
70154;DHT22;57519;51.494;-2.626;2023-07-22T10:07:23;15.33;91.37
70154;DHT22;57519;51.494;-2.626;2023-07-22T10:13:10;15.27;91.87
70154;DHT22;57519;51.494;-2.626;2023-07-22T10:18:59;15.37;92.12
70154;DHT22;57519;51.494;-2.626;2023-07-22T10:24:53;15.35;92.10
70154;DHT22;57519;51.494;-2.626;2023-07-22T10:30:56;15.33;92.31
70154;DHT22;57519;51.494;-2.626;2023-07-22T10:36:47;15.51;92.28
70154;DHT22;57519;51.494;-2.626;2023-07-22T10:42:39;15.51;91.63
70154;DHT22;57519;51.494;-2.626;2023-07-22T10:48:36;15.44;91.92
70154;DHT22;57519;51.494;-2.626;2023-07-22T10:54:33;15.53;92.63
70154;DHT22;57519;51.494;-2.626;2023-07-22T11:00:22;15.61;92.23
70154;DHT22;57519;51.494;-2.626;2023-07-22T11:06:18;15.66;92.16
70154;DHT22;57519;51.494;-2.626;2023-07-22T11:12:08;15.64;92.10
70154;DHT22;57519;51.494;-2.626;2023-07-22T11:18:46;15.73;92.40
70154;DHT22;57519;51.494;-2.626;2023-07-22T11:24:39;15.84;91.85
70154;DHT22;57519;51.494;-2.626;2023-07-22T11:30:26;15.98;91.84
70154;DHT22;57519;51.494;-2.626;2023-07-22T11:36:13;16.05;91.63
70154;DHT22;57519;51.494;-2.626;2023-07-22T11:42:01;16.14;91.63
70154;DHT22;57519;51.494;-2.626;2023-07-22T11:44:28;16.15;91.02
70154;DHT22;57519;51.494;-2.626;2023-07-22T11:47:02;16.28;91.03
70154;DHT22;57519;51.494;-2.626;2023-07-22T11:49:36;16.38;91.01
70154;DHT22;57519;51.494;-2.626;2023-07-22T11:52:04;16.36;90.88
70154;DHT22;57519;51.494;-2.626;2023-07-22T11:54:32;16.29;90.61
70154;DHT22;57519;51.494;-2.626;2023-07-22T11:57:36;16.28;91.17
70154;DHT22;57519;51.494;-2.626;2023-07-22T12:00:08;16.53;91.13
70154;DHT22;57519;51.494;-2.626;2023-07-22T12:02:37;16.69;90.77
70154;DHT22;57519;51.494;-2.626;2023-07-22T12:05:04;16.66;90.78
70154;DHT22;57519;51.494;-2.626;2023-07-22T12:07:36;16.64;90.63
70154;DHT22;57519;51.494;-2.626;2023-07-22T12:10:04;16.66;90.30
70154;DHT22;57519;51.494;-2.626;2023-07-22T12:15:42;17.03;90.14
70154;DHT22;57519;51.494;-2.626;2023-07-22T12:27:55;17.11;90.40
70154;DHT22;57519;51.494;-2.626;2023-07-22T12:30:21;17.01;90.66
70154;DHT22;57519;51.494;-2.626;2023-07-22T12:32:47;17.04;90.40
70154;DHT22;57519;51.494;-2.626;2023-07-22T12:35:13;17.10;90.66
70154;DHT22;57519;51.494;-2.626;2023-07-22T12:37:39;17.22;90.60
70154;DHT22;57519;51.494;-2.626;2023-07-22T12:40:05;17.46;90.00
70154;DHT22;57519;51.494;-2.626;2023-07-22T12:42:34;17.73;89.60
70154;DHT22;57519;51.494;-2.626;2023-07-22T12:44:59;17.80;88.71
70154;DHT22;57519;51.494;-2.626;2023-07-22T12:47:24;17.87;89.29
70154;DHT22;57519;51.494;-2.626;2023-07-22T12:49:50;17.82;88.60
70154;DHT22;57519;51.494;-2.626;2023-07-22T12:52:15;17.96;89.23
70154;DHT22;57519;51.494;-2.626;2023-07-22T12:54:41;18.04;88.76
70154;DHT22;57519;51.494;-2.626;2023-07-22T12:57:06;18.08;88.61
70154;DHT22;57519;51.494;-2.626;2023-07-22T12:59:32;18.14;88.26
70154;DHT22;57519;51.494;-2.626;2023-07-22T13:01:57;18.30;88.15
70154;DHT22;57519;51.494;-2.626;2023-07-22T13:04:25;18.24;88.56
70154;DHT22;57519;51.494;-2.626;2023-07-22T13:06:51;18.17;87.97
70154;DHT22;57519;51.494;-2.626;2023-07-22T13:09:20;18.21;87.58
70154;DHT22;57519;51.494;-2.626;2023-07-22T13:11:45;18.25;88.67
70154;DHT22;57519;51.494;-2.626;2023-07-22T13:14:11;18.17;88.52
70154;DHT22;57519;51.494;-2.626;2023-07-22T13:16:36;18.17;88.60
70154;DHT22;57519;51.494;-2.626;2023-07-22T13:19:02;18.04;88.23
70154;DHT22;57519;51.494;-2.626;2023-07-22T13:21:29;17.93;88.66
70154;DHT22;57519;51.494;-2.626;2023-07-22T13:23:54;17.80;89.76
70154;DHT22;57519;51.494;-2.626;2023-07-22T13:26:19;17.67;89.52
70154;DHT22;57519;51.494;-2.626;2023-07-22T13:28:46;17.66;89.41
70154;DHT22;57519;51.494;-2.626;2023-07-22T13:31:12;17.79;90.14
70154;DHT22;57519;51.494;-2.626;2023-07-22T13:33:38;17.87;88.85
70154;DHT22;57519;51.494;-2.626;2023-07-22T13:36:04;17.94;88.94
70154;DHT22;57519;51.494;-2.626;2023-07-22T13:38:34;17.98;89.39
70154;DHT22;57519;51.494;-2.626;2023-07-22T13:41:00;17.90;88.32
70154;DHT22;57519;51.494;-2.626;2023-07-22T13:46:06;17.90;89.09
70154;DHT22;57519;51.494;-2.626;2023-07-22T13:48:32;17.79;88.91
70154;DHT22;57519;51.494;-2.626;2023-07-22T13:50:58;17.79;89.34
70154;DHT22;57519;51.494;-2.626;2023-07-22T13:53:24;17.83;89.72
70154;DHT22;57519;51.494;-2.626;2023-07-22T13:55:50;17.89;89.81
70154;DHT22;57519;51.494;-2.626;2023-07-22T13:58:16;17.94;89.50
70154;DHT22;57519;51.494;-2.626;2023-07-22T14:00:43;17.98;89.12
70154;DHT22;57519;51.494;-2.626;2023-07-22T14:03:09;18.11;88.72
70154;DHT22;57519;51.494;-2.626;2023-07-22T14:05:35;18.34;88.62
70154;DHT22;57519;51.494;-2.626;2023-07-22T14:08:01;18.48;87.87
70154;DHT22;57519;51.494;-2.626;2023-07-22T14:10:28;18.55;87.04
70154;DHT22;57519;51.494;-2.626;2023-07-22T14:12:54;18.72;87.68
70154;DHT22;57519;51.494;-2.626;2023-07-22T14:15:20;18.90;87.29
70154;DHT22;57519;51.494;-2.626;2023-07-22T14:17:46;18.75;86.46
70154;DHT22;57519;51.494;-2.626;2023-07-22T14:20:15;18.90;86.59
70154;DHT22;57519;51.494;-2.626;2023-07-22T14:22:41;18.80;86.24
70154;DHT22;57519;51.494;-2.626;2023-07-22T14:25:08;18.72;85.83
70154;DHT22;57519;51.494;-2.626;2023-07-22T14:27:34;18.77;86.06
70154;DHT22;57519;51.494;-2.626;2023-07-22T14:30:01;18.72;86.25
70154;DHT22;57519;51.494;-2.626;2023-07-22T14:32:43;18.66;86.11
70154;DHT22;57519;51.494;-2.626;2023-07-22T14:35:25;18.65;86.00
70154;DHT22;57519;51.494;-2.626;2023-07-22T14:37:53;18.73;86.11
70154;DHT22;57519;51.494;-2.626;2023-07-22T14:40:19;18.79;85.72
70154;DHT22;57519;51.494;-2.626;2023-07-22T14:42:44;18.92;85.61
70154;DHT22;57519;51.494;-2.626;2023-07-22T14:45:10;18.82;86.26
70154;DHT22;57519;51.494;-2.626;2023-07-22T14:47:35;18.80;85.40
70154;DHT22;57519;51.494;-2.626;2023-07-22T14:50:01;18.86;86.08
70154;DHT22;57519;51.494;-2.626;2023-07-22T14:52:27;19.10;86.32
70154;DHT22;57519;51.494;-2.626;2023-07-22T14:54:52;19.04;85.08
70154;DHT22;57519;51.494;-2.626;2023-07-22T14:57:18;19.23;85.52
70154;DHT22;57519;51.494;-2.626;2023-07-22T14:59:52;19.28;84.96
70154;DHT22;57519;51.494;-2.626;2023-07-22T15:02:25;19.26;85.09
70154;DHT22;57519;51.494;-2.626;2023-07-22T15:05:15;19.38;85.30
70154;DHT22;57519;51.494;-2.626;2023-07-22T15:07:42;19.32;85.02
70154;DHT22;57519;51.494;-2.626;2023-07-22T15:10:07;19.59;85.01
70154;DHT22;57519;51.494;-2.626;2023-07-22T15:12:33;19.76;84.06
70154;DHT22;57519;51.494;-2.626;2023-07-22T15:14:58;19.74;83.94
70154;DHT22;57519;51.494;-2.626;2023-07-22T15:17:26;19.65;84.53
70154;DHT22;57519;51.494;-2.626;2023-07-22T15:19:51;19.62;85.06
70154;DHT22;57519;51.494;-2.626;2023-07-22T15:22:17;19.76;84.70
70154;DHT22;57519;51.494;-2.626;2023-07-22T15:24:42;19.96;84.19
70154;DHT22;57519;51.494;-2.626;2023-07-22T15:27:08;20.02;83.91
70154;DHT22;57519;51.494;-2.626;2023-07-22T15:29:33;20.24;83.32
70154;DHT22;57519;51.494;-2.626;2023-07-22T15:31:59;20.33;82.32
70154;DHT22;57519;51.494;-2.626;2023-07-22T15:34:27;20.43;82.71
70154;DHT22;57519;51.494;-2.626;2023-07-22T15:36:52;20.30;82.24
70154;DHT22;57519;51.494;-2.626;2023-07-22T15:39:18;20.10;82.50
70154;DHT22;57519;51.494;-2.626;2023-07-22T15:41:43;20.14;82.82
70154;DHT22;57519;51.494;-2.626;2023-07-22T15:44:08;20.20;82.84
70154;DHT22;57519;51.494;-2.626;2023-07-22T15:46:34;20.39;83.95
70154;DHT22;57519;51.494;-2.626;2023-07-22T15:48:59;20.41;83.38
70154;DHT22;57519;51.494;-2.626;2023-07-22T15:51:25;20.27;83.25
70154;DHT22;57519;51.494;-2.626;2023-07-22T15:53:50;20.09;84.44
70154;DHT22;57519;51.494;-2.626;2023-07-22T15:56:15;19.97;84.37
70154;DHT22;57519;51.494;-2.626;2023-07-22T15:58:41;19.92;84.38
70154;DHT22;57519;51.494;-2.626;2023-07-22T16:01:06;19.95;84.82
70154;DHT22;57519;51.494;-2.626;2023-07-22T16:03:32;20.02;84.46
70154;DHT22;57519;51.494;-2.626;2023-07-22T16:05:57;20.05;84.32
70154;DHT22;57519;51.494;-2.626;2023-07-22T16:08:22;20.05;84.12
70154;DHT22;57519;51.494;-2.626;2023-07-22T16:10:48;19.78;84.23
70154;DHT22;57519;51.494;-2.626;2023-07-22T16:13:13;19.62;85.23
70154;DHT22;57519;51.494;-2.626;2023-07-22T16:15:39;19.45;84.86
70154;DHT22;57519;51.494;-2.626;2023-07-22T16:18:04;19.35;85.58
70154;DHT22;57519;51.494;-2.626;2023-07-22T16:20:30;19.37;86.02
70154;DHT22;57519;51.494;-2.626;2023-07-22T16:22:56;19.32;86.14
70154;DHT22;57519;51.494;-2.626;2023-07-22T16:25:22;19.37;86.16
70154;DHT22;57519;51.494;-2.626;2023-07-22T16:27:47;19.24;86.15
70154;DHT22;57519;51.494;-2.626;2023-07-22T16:30:12;19.07;86.16
70154;DHT22;57519;51.494;-2.626;2023-07-22T16:32:38;18.99;86.90
70154;DHT22;57519;51.494;-2.626;2023-07-22T16:35:04;18.88;87.34
70154;DHT22;57519;51.494;-2.626;2023-07-22T16:37:31;18.75;87.52
70154;DHT22;57519;51.494;-2.626;2023-07-22T16:39:56;18.62;87.75
70154;DHT22;57519;51.494;-2.626;2023-07-22T16:42:22;18.55;88.09
70154;DHT22;57519;51.494;-2.626;2023-07-22T16:44:47;18.47;88.61
70154;DHT22;57519;51.494;-2.626;2023-07-22T16:47:13;18.44;88.71
70154;DHT22;57519;51.494;-2.626;2023-07-22T16:49:38;18.37;88.44